Forside
METAR-TAF:

METAR-TAF

Lufthavne :

Ouagadougou, Burkina Faso

Breddekreds: 12-21N, længdekreds: 001-31W, højde: 316 m

Aktuelle vejr

Denne rapport blev lavet for 44 minutter siden, kl. 00:00 UTC
Vind 7 kt fra nordnordøst
Temperatur 24°C
Fugtighed 10%
Tryk 1012 hPa
Sigt 10 km eller mere
ingen skyer under 1500m og ingen cumulonimbus

METAR: DFFD 240000Z 02007KT CAVOK 24/M09 Q1012 NOSIG

Tid: 00:44 (00:44 UTC)

Vejrudsigter

Denne rapport blev lavet for 1 time og 44 minutter siden, kl. 23:00 UTC
Foreløbig gælder fra 24 på 00 UTC til 25 på 06 UTC
Vind 10 kt fra nordnordøst
Sigt: 8000 m
ændring
fra 24 på 05 UTC til 24 på 07 UTC
Sigt: 3500 m
Udbredt støv
Midlertidig
fra 24 på 07 UTC til 24 på 10 UTC
Sigt: 2500 m
Udbredt støv

TAF: DFFD 232300Z 2400/2506 02010KT 8000 NSC BECMG 2405/2407 3500 DU TEMPO 2407/2410 2500 DU

Vejrobservationer og prognoser fra mere end 4000 lufthavne (METAR og TAF).

De gule og røde prikker repræsenterer de meteorologiske stationer.

Flyt musen over at se navnet på stationen.

Så klik over at se vejr observationer og prognoser.

At skifte det kort: Klik på de grønne knapper med et sort kors for at zoome ind; på den grønne knap med en bindestreg for at zoome ud; eller på de grønne pile for tilstødende kort.


METAR-TAF: